Flight Track Log - Related Links

Times and Time Zones

All times are in EDT time to prevent confusion due to time zone crossing. See the ELO3908 flight status page for this flight to view local times or setup timezone preferences in your user account.

Time Position Orientation Groundspeed Altitude Reporting Facility
EDT Latitude Longitude Course Direction KTS MPH feet Rate Location/Type
Wed 10:39:00 AM 50.5598 20.0478 19° North  Level Estimated
Wed 10:40:00 AM 50.6401 20.0922 19° North  Level Estimated
Wed 10:41:00 AM 50.7203 20.1367 19° North  Level Estimated
Wed 10:42:00 AM 50.8006 20.1814 19° North  Level Estimated
Wed 10:43:00 AM 50.8808 20.2262 19° North  Level Estimated
Wed 10:44:00 AM 50.9610 20.2712 19° North  Level Estimated
Wed 10:45:00 AM 51.0412 20.3163 19° North  Level Estimated
Wed 10:46:00 AM 51.1214 20.3616 20° North  Level Estimated
Wed 10:47:00 AM 51.2016 20.4070 20° North  Level Estimated
Wed 10:48:00 AM 51.2817 20.4526 20° North  Level Estimated
Wed 10:49:00 AM 51.3619 20.4984 20° North  Level Estimated
Wed 10:50:00 AM 51.4420 20.5443 20° North  Level Estimated
Wed 10:51:00 AM 51.5220 20.5904 20° North  Level Estimated
Wed 10:52:00 AM 51.6021 20.6366 20° North  Level Estimated
Wed 10:53:00 AM 51.6822 20.6830 20° North  Level Estimated
Wed 10:54:00 AM 51.7622 20.7296 20° North  Level Estimated
Wed 10:55:00 AM 51.8422 20.7763 20° North  Level Estimated
Wed 10:56:00 AM 51.9222 20.8232 20° North  Level Estimated
Wed 10:57:00 AM 52.0022 20.8703 20° North  Level Estimated
Wed 10:58:00 AM 52.0822 20.9175 20° North  Level Estimated
Wed 10:59:00 AM 52.1621 20.9650 20° North  Level Estimated
Wed 11:00:00 AM 52.1657 20.9671 20° North  Level Estimated
Wed 11:01:00 AM 52.1657 20.9671 90° East  Level Estimated
Wed 11:02:00 AM 52.1657 20.9671 90° East  Level Estimated
Wed 11:03:00 AM 52.1657 20.9671 90° East  Level Estimated
Wed 11:04:00 AM 52.1657 20.9671 90° East  Level Estimated
Wed 11:05:00 AM 52.1657 20.9671 90° East  Level Estimated
Wed 11:06:00 AM 52.1657 20.9671 90° East  Level Estimated
Wed 11:07:00 AM 52.1657 20.9671 90° East  Level Estimated

Login

Don't have an account? Register now (free) for customized features, flight alerts, and more!